Airfield :
LOGIN :

Register | Disclaimer

   EN    FR    IT 

 










Legend :    VFR   Marginal VFR   IFR   Intensive IFR   Very Intensive IFR
Visi :
Ceiling :
>= 8 km
>= 3000ft
5 to 8 km
1000 to 3000 ft
1500m to 5 km
500 to 1000 ft
800 to 1500m
200 to 500 ft
< 800m
< 200 ft
Symbols :   Thunderstorms  Fog  Heavy snow  Heavy precipitations  Wind > 20 kt
SIGMETs :     Misc.  Thunderstorms  Icing  Turbulence  Mountain Waves  Volcanic Ashes






- Airport Elevation : 978 ft
- IATA code : LNZ


LOWL - Linz

CURRENT METAR :
  • 221020Z VRB04KT 9999 FEW032 24/16 Q1011 NOSIG

EXPIRED METARs :
  • 220950Z 34003KT 230V030 9999 FEW030 24/16 Q1011 NOSIG
  • 220920Z VRB03KT 9999 FEW027 23/16 Q1011 NOSIG
  • 220850Z 35004KT 280V050 9999 FEW026 23/16 Q1011 NOSIG
  • 220820Z VRB02KT 9999 SCT023 23/17 Q1012 NOSIG
  • 220750Z 33004KT 280V030 9999 SCT022 22/16 Q1012 NOSIG

TAF TAF LOWL
Valid from the 22 at 06:00 until the 23 at 06:00 UTC


220515Z 2206/2306 25010KT 9999 BKN025 TX28/2214Z TN19/2303Z
BECMG 2208/2210 30005KT SCT040
TEMPO 2218/2302 35012KT SCT040CB
PROB40
TEMPO 2218/2224 3000 TSRA
TEMPO 2300/2306 VRB02KT -SHRA BKN020



MET'MAP, your aeronautical weather chart ! - Copyright ORBIFLY December 2007 - Disclaimer

ORBIFLY MET'MAP TEAM :

Programming & Development : Alexandra Zaïnal
Concept & original design : Baudouin d'Aumeries
Assistance for programming : Marc-Olivier Méhu
Technical & hardware support : Manuel Goepfert

Contact : metmap@orbifly.com




SOURCES & CREDITS :

   NOAA